Terminal Aerodrome Forecast
Issued by NWS Charleston, WV

Current Version | Previous Version | Text Only | Print | Product List | Glossary Off
Versions: 1 2 3 4 5 6 7 8 9 10 11 12 13 14 15 16 17 18 19

406
FTUS41 KRLX 080326 AAA
TAFPKB
TAF AMD
KPKB 080326Z 0803/0824 16003KT P6SM SKC
     FM081200 18004KT 4SM -SN OVC030
     FM081300 18004KT 2SM -RASN OVC015
     FM081600 21005KT 3SM -RA OVC015
     FM081900 23006KT 5SM -RA OVC015=

USA.gov is the U.S. government's official web portal to all federal, state and local government web resources and services.